»·PEaware :: N114HT L35-L70

N114HT :: L35-L70

FLIGHT INFORMATION

Flight Status: Arrived
Operator: Privately registered:
United States
More flights under this callsign
Pilot: Heigo T. (17565)
Aircraft: CESSNA 182 SKYLANE
(C182)
More flights by this aircraft type
Origin: L35 Big Bear City
United States
Destination: L70 Agua Dulce
United States
More flights between these airports :: More routes between these airports
Route: +
File this flight plan on PilotEdge
Remarks:
Altitude:
(Current/Filed)
8,500ft
Speed:
(Current/Filed)
130kts
Departed: 03-Jan-18 01:52 PM
Arrived: 03-Jan-18 02:37 PM
Distance/Time
Traveled:
74nm/0:45
Distance/Time
To Go:
Arrived

Flight Plot

Page will automatically refresh every two minutes.


Map Options




Map Legend


Flown Route
Filed Route
Departure Airport
Arrival Airport
Navaid (VOR, NDB)
Fix

Horizontal Profiles

Position Reports

Time Latitude Longitude Heading Altitude Ground
Speed
03-Jan-18 13:34 34.263021 -116.858694 0 6755ft 0kts
03-Jan-18 13:35 34.263021 -116.858694 0 6755ft 0kts
03-Jan-18 13:36 34.263021 -116.858694 0 6755ft 0kts
03-Jan-18 13:37 34.263087 -116.858673 33 6755ft 1kts
03-Jan-18 13:38 34.263251 -116.856212 89 6755ft 11kts
03-Jan-18 13:39 34.262799 -116.853588 180 6755ft 7kts
03-Jan-18 13:40 34.262191 -116.854062 268 6755ft 0kts
03-Jan-18 13:41 34.262191 -116.854062 268 6755ft 0kts
03-Jan-18 13:42 34.262191 -116.854062 268 6755ft 0kts
03-Jan-18 13:43 34.262191 -116.854064 268 6755ft 0kts
03-Jan-18 13:44 34.262191 -116.854068 268 6755ft 0kts
03-Jan-18 13:45 34.262191 -116.854071 268 6755ft 0kts
03-Jan-18 13:46 34.262191 -116.854074 268 6755ft 0kts
03-Jan-18 13:47 34.262191 -116.854078 268 6755ft 0kts
03-Jan-18 13:48 34.262385 -116.854367 12 6755ft 4kts
03-Jan-18 13:49 34.263254 -116.852882 90 6755ft 9kts
03-Jan-18 13:50 34.263284 -116.848041 89 6755ft 16kts
03-Jan-18 13:51 34.263393 -116.846394 16 6755ft 0kts
03-Jan-18 13:52 34.263396 -116.846393 16 6755ft 0kts
03-Jan-18 13:53 34.263398 -116.846392 16 6755ft 0kts
03-Jan-18 13:54 34.263403 -116.846390 16 6755ft 0kts
03-Jan-18 13:55 34.263408 -116.846388 16 6755ft 0kts
03-Jan-18 13:56 34.263820 -116.847811 273 6755ft 0kts
03-Jan-18 13:57 34.263820 -116.847813 273 6755ft 0kts
03-Jan-18 13:58 34.263112 -116.865092 259 7006ft 78kts
03-Jan-18 13:59 34.257125 -116.891634 252 7582ft 91kts
03-Jan-18 14:00 34.250748 -116.925205 259 8142ft 105kts
03-Jan-18 14:01 34.266706 -116.955101 321 8481ft 132kts
03-Jan-18 14:02 34.287083 -116.993981 268 8464ft 144kts
03-Jan-18 14:03 34.283746 -117.043836 261 8450ft 155kts
03-Jan-18 14:04 34.278831 -117.094106 261 8422ft 147kts
03-Jan-18 14:05 34.274070 -117.142877 256 8410ft 145kts
03-Jan-18 14:06 34.266061 -117.190722 234 8394ft 149kts
03-Jan-18 14:07 34.232886 -117.218885 211 8383ft 145kts
03-Jan-18 14:08 34.198498 -117.246401 211 8366ft 151kts
03-Jan-18 14:09 34.174499 -117.286276 256 8360ft 163kts
03-Jan-18 14:10 34.165540 -117.339520 256 8358ft 164kts
03-Jan-18 14:11 34.157155 -117.391123 256 8340ft 151kts
03-Jan-18 14:12 34.149243 -117.440384 257 8336ft 148kts
03-Jan-18 14:13 34.157188 -117.489479 281 8323ft 148kts
03-Jan-18 14:14 34.162201 -117.538430 272 8317ft 146kts
03-Jan-18 14:15 34.165596 -117.586410 272 8452ft 140kts
03-Jan-18 14:16 34.169007 -117.634063 272 8487ft 144kts
03-Jan-18 14:17 34.172526 -117.682595 272 8487ft 146kts
03-Jan-18 14:18 34.176258 -117.731639 272 8487ft 146kts
03-Jan-18 14:19 34.176018 -117.780544 265 8493ft 145kts
03-Jan-18 14:20 34.174878 -117.829434 265 8492ft 146kts
03-Jan-18 14:21 34.173732 -117.878607 265 8483ft 146kts
03-Jan-18 14:22 34.172493 -117.929573 265 8475ft 159kts
03-Jan-18 14:23 34.171140 -117.982171 265 8463ft 157kts
03-Jan-18 14:24 34.171930 -118.035093 273 8350ft 160kts
03-Jan-18 14:25 34.180599 -118.079799 285 7809ft 138kts
03-Jan-18 14:26 34.193628 -118.129788 285 7351ft 167kts
03-Jan-18 14:27 34.211746 -118.179943 297 6836ft 163kts
03-Jan-18 14:28 34.232997 -118.226565 297 6482ft 150kts
03-Jan-18 14:29 34.252362 -118.268953 297 6484ft 141kts
03-Jan-18 14:30 34.271024 -118.309709 297 6462ft 136kts
03-Jan-18 14:31 34.289987 -118.351162 297 6523ft 145kts
03-Jan-18 14:32 34.314608 -118.385615 345 6525ft 136kts
03-Jan-18 14:33 34.351152 -118.397027 354 6516ft 135kts
03-Jan-18 14:34 34.390428 -118.397755 0 6523ft 148kts
03-Jan-18 14:35 34.429417 -118.392971 45 6495ft 139kts
03-Jan-18 14:36 34.455241 -118.360557 48 6062ft 125kts
03-Jan-18 14:37 34.475458 -118.328717 69 5473ft 115kts
03-Jan-18 14:38 34.487779 -118.292135 69 4911ft 120kts
03-Jan-18 14:39 34.505997 -118.261796 11 4338ft 111kts
03-Jan-18 14:40 34.524039 -118.285346 258 3793ft 117kts
03-Jan-18 14:41 34.526758 -118.305405 75 3301ft 84kts
03-Jan-18 14:42 34.509053 -118.304301 228 2789ft 80kts
03-Jan-18 14:43 34.502436 -118.314863 254 2605ft 0kts
03-Jan-18 14:44 34.503255 -118.314576 236 2605ft 5kts
03-Jan-18 14:45 34.503269 -118.314602 165 2605ft 2kts
03-Jan-18 14:46 34.503320 -118.314608 177 2605ft 0kts
03-Jan-18 14:47 34.503320 -118.314608 177 2605ft 0kts
03-Jan-18 14:48 34.503320 -118.314608 177 2605ft 0kts
03-Jan-18 14:49 34.503320 -118.314608 177 2605ft 0kts
03-Jan-18 14:50 34.503320 -118.314608 177 2605ft 0kts
03-Jan-18 14:51 34.503320 -118.314608 177 2605ft 0kts
03-Jan-18 14:52 34.503320 -118.314608 177 2605ft 0kts
03-Jan-18 14:53 34.503320 -118.314608 177 2605ft 0kts
03-Jan-18 14:54 34.503320 -118.314608 177 2605ft 0kts
03-Jan-18 14:55 34.503320 -118.314608 177 2605ft 0kts
03-Jan-18 14:56 34.503320 -118.314608 177 2605ft 0kts
03-Jan-18 14:57 34.503320 -118.314608 177 2605ft 0kts

Navigation Log

Ident Type
Flight plan parsing failed, navigation log unavailable